sensor_id;sensor_type;location;lat;lon;timestamp;temperature;humidity
4056;DHT22;2043;52.184;8.690;2023-04-15T00:01:14;5.90;99.90
4056;DHT22;2043;52.184;8.690;2023-04-15T00:03:45;6.00;99.90
4056;DHT22;2043;52.184;8.690;2023-04-15T00:06:13;6.00;99.90
4056;DHT22;2043;52.184;8.690;2023-04-15T00:08:40;6.00;99.90
4056;DHT22;2043;52.184;8.690;2023-04-15T00:11:07;6.00;99.90
4056;DHT22;2043;52.184;8.690;2023-04-15T00:16:01;6.10;99.90
4056;DHT22;2043;52.184;8.690;2023-04-15T00:18:28;6.20;99.90
4056;DHT22;2043;52.184;8.690;2023-04-15T00:23:22;6.30;99.90
4056;DHT22;2043;52.184;8.690;2023-04-15T00:25:49;6.30;99.90
4056;DHT22;2043;52.184;8.690;2023-04-15T00:28:16;6.20;99.90
4056;DHT22;2043;52.184;8.690;2023-04-15T00:30:43;6.20;99.90
4056;DHT22;2043;52.184;8.690;2023-04-15T00:33:12;6.30;99.90
4056;DHT22;2043;52.184;8.690;2023-04-15T00:35:39;6.40;99.90
4056;DHT22;2043;52.184;8.690;2023-04-15T00:38:06;6.50;99.90
4056;DHT22;2043;52.184;8.690;2023-04-15T00:40:36;6.50;99.90
4056;DHT22;2043;52.184;8.690;2023-04-15T00:47:59;6.30;99.90
4056;DHT22;2043;52.184;8.690;2023-04-15T00:52:53;6.30;99.90
4056;DHT22;2043;52.184;8.690;2023-04-15T00:55:19;6.30;99.90
4056;DHT22;2043;52.184;8.690;2023-04-15T00:57:46;6.30;99.90
4056;DHT22;2043;52.184;8.690;2023-04-15T01:00:14;6.50;99.90
4056;DHT22;2043;52.184;8.690;2023-04-15T01:02:42;6.50;99.90
4056;DHT22;2043;52.184;8.690;2023-04-15T01:07:36;6.70;99.90
4056;DHT22;2043;52.184;8.690;2023-04-15T01:10:04;6.70;99.90
4056;DHT22;2043;52.184;8.690;2023-04-15T01:12:31;6.70;99.90
4056;DHT22;2043;52.184;8.690;2023-04-15T01:14:59;6.80;99.90
4056;DHT22;2043;52.184;8.690;2023-04-15T01:17:26;6.90;99.90
4056;DHT22;2043;52.184;8.690;2023-04-15T01:19:55;7.00;99.90
4056;DHT22;2043;52.184;8.690;2023-04-15T01:22:25;7.00;99.90
4056;DHT22;2043;52.184;8.690;2023-04-15T01:25:01;7.10;99.90
4056;DHT22;2043;52.184;8.690;2023-04-15T01:29:59;7.20;99.90
4056;DHT22;2043;52.184;8.690;2023-04-15T01:32:28;7.20;99.90
4056;DHT22;2043;52.184;8.690;2023-04-15T01:37:23;7.30;99.90
4056;DHT22;2043;52.184;8.690;2023-04-15T01:39:50;7.30;99.90
4056;DHT22;2043;52.184;8.690;2023-04-15T01:42:17;7.30;99.90
4056;DHT22;2043;52.184;8.690;2023-04-15T01:47:11;7.10;99.90
4056;DHT22;2043;52.184;8.690;2023-04-15T01:52:05;7.00;99.90
4056;DHT22;2043;52.184;8.690;2023-04-15T01:56:59;7.00;99.90
4056;DHT22;2043;52.184;8.690;2023-04-15T01:59:26;7.10;99.90
4056;DHT22;2043;52.184;8.690;2023-04-15T02:01:53;7.10;99.90
4056;DHT22;2043;52.184;8.690;2023-04-15T02:04:20;7.10;99.90
4056;DHT22;2043;52.184;8.690;2023-04-15T02:06:47;7.00;99.90
4056;DHT22;2043;52.184;8.690;2023-04-15T02:09:14;6.90;99.90
4056;DHT22;2043;52.184;8.690;2023-04-15T02:11:41;6.90;99.90
4056;DHT22;2043;52.184;8.690;2023-04-15T02:14:07;6.80;99.90
4056;DHT22;2043;52.184;8.690;2023-04-15T02:16:34;6.60;99.90
4056;DHT22;2043;52.184;8.690;2023-04-15T02:19:03;6.50;99.90
4056;DHT22;2043;52.184;8.690;2023-04-15T02:21:29;6.50;99.90
4056;DHT22;2043;52.184;8.690;2023-04-15T02:23:56;6.50;99.90
4056;DHT22;2043;52.184;8.690;2023-04-15T02:26:23;6.50;99.90
4056;DHT22;2043;52.184;8.690;2023-04-15T02:28:50;6.50;99.90
4056;DHT22;2043;52.184;8.690;2023-04-15T02:31:17;6.50;99.90
4056;DHT22;2043;52.184;8.690;2023-04-15T02:33:44;6.50;99.90
4056;DHT22;2043;52.184;8.690;2023-04-15T02:38:39;6.70;99.90
4056;DHT22;2043;52.184;8.690;2023-04-15T02:41:09;6.80;99.90
4056;DHT22;2043;52.184;8.690;2023-04-15T02:43:36;6.80;99.90
4056;DHT22;2043;52.184;8.690;2023-04-15T02:46:03;6.80;99.90
4056;DHT22;2043;52.184;8.690;2023-04-15T02:48:30;6.80;99.90
4056;DHT22;2043;52.184;8.690;2023-04-15T02:51:13;6.80;99.90
4056;DHT22;2043;52.184;8.690;2023-04-15T02:56:07;6.80;99.90
4056;DHT22;2043;52.184;8.690;2023-04-15T02:58:35;6.70;99.90
4056;DHT22;2043;52.184;8.690;2023-04-15T03:01:02;6.70;99.90
4056;DHT22;2043;52.184;8.690;2023-04-15T03:03:28;6.70;99.90
4056;DHT22;2043;52.184;8.690;2023-04-15T03:05:55;6.70;99.90
4056;DHT22;2043;52.184;8.690;2023-04-15T03:08:22;6.60;99.90
4056;DHT22;2043;52.184;8.690;2023-04-15T03:13:19;6.60;99.90
4056;DHT22;2043;52.184;8.690;2023-04-15T03:15:46;6.70;99.90
4056;DHT22;2043;52.184;8.690;2023-04-15T03:18:13;6.70;99.90
4056;DHT22;2043;52.184;8.690;2023-04-15T03:23:07;6.60;99.90
4056;DHT22;2043;52.184;8.690;2023-04-15T03:25:34;6.50;99.90
4056;DHT22;2043;52.184;8.690;2023-04-15T03:28:03;6.40;99.90
4056;DHT22;2043;52.184;8.690;2023-04-15T03:30:30;6.50;99.90
4056;DHT22;2043;52.184;8.690;2023-04-15T03:32:57;6.40;99.90
4056;DHT22;2043;52.184;8.690;2023-04-15T03:35:24;6.20;99.90
4056;DHT22;2043;52.184;8.690;2023-04-15T03:37:51;6.20;99.90
4056;DHT22;2043;52.184;8.690;2023-04-15T03:40:17;6.20;99.90
4056;DHT22;2043;52.184;8.690;2023-04-15T03:42:44;6.30;99.90
4056;DHT22;2043;52.184;8.690;2023-04-15T03:47:38;6.20;99.90
4056;DHT22;2043;52.184;8.690;2023-04-15T03:50:05;6.10;99.90
4056;DHT22;2043;52.184;8.690;2023-04-15T03:57:27;6.20;99.90
4056;DHT22;2043;52.184;8.690;2023-04-15T03:59:53;6.30;99.90
4056;DHT22;2043;52.184;8.690;2023-04-15T04:02:20;6.20;99.90
4056;DHT22;2043;52.184;8.690;2023-04-15T04:04:48;6.10;99.90
4056;DHT22;2043;52.184;8.690;2023-04-15T04:07:16;6.10;99.90
4056;DHT22;2043;52.184;8.690;2023-04-15T04:09:43;6.10;99.90
4056;DHT22;2043;52.184;8.690;2023-04-15T04:12:12;6.10;99.90
4056;DHT22;2043;52.184;8.690;2023-04-15T04:14:39;6.20;99.90
4056;DHT22;2043;52.184;8.690;2023-04-15T04:17:06;6.30;99.90
4056;DHT22;2043;52.184;8.690;2023-04-15T04:19:33;6.30;99.90
4056;DHT22;2043;52.184;8.690;2023-04-15T04:22:00;6.40;99.90
4056;DHT22;2043;52.184;8.690;2023-04-15T04:24:26;6.40;99.90
4056;DHT22;2043;52.184;8.690;2023-04-15T04:26:53;6.40;99.90
4056;DHT22;2043;52.184;8.690;2023-04-15T04:29:20;6.40;99.90
4056;DHT22;2043;52.184;8.690;2023-04-15T04:34:15;6.60;99.90
4056;DHT22;2043;52.184;8.690;2023-04-15T04:44:04;7.00;99.90
4056;DHT22;2043;52.184;8.690;2023-04-15T04:46:30;7.00;99.90
4056;DHT22;2043;52.184;8.690;2023-04-15T04:51:24;7.10;99.90
4056;DHT22;2043;52.184;8.690;2023-04-15T04:53:51;7.10;99.90
4056;DHT22;2043;52.184;8.690;2023-04-15T04:58:45;7.20;99.90
4056;DHT22;2043;52.184;8.690;2023-04-15T05:06:07;7.20;99.90
4056;DHT22;2043;52.184;8.690;2023-04-15T05:20:51;7.30;99.90
4056;DHT22;2043;52.184;8.690;2023-04-15T05:33:07;7.50;99.90
4056;DHT22;2043;52.184;8.690;2023-04-15T05:45:26;7.30;99.90
4056;DHT22;2043;52.184;8.690;2023-04-15T05:50:20;7.30;99.90
4056;DHT22;2043;52.184;8.690;2023-04-15T05:57:41;7.40;99.90
4056;DHT22;2043;52.184;8.690;2023-04-15T06:00:09;7.40;99.90
4056;DHT22;2043;52.184;8.690;2023-04-15T06:02:35;7.50;99.90
4056;DHT22;2043;52.184;8.690;2023-04-15T06:07:36;7.30;99.90
4056;DHT22;2043;52.184;8.690;2023-04-15T06:10:03;7.40;99.90
4056;DHT22;2043;52.184;8.690;2023-04-15T06:12:31;7.30;99.90
4056;DHT22;2043;52.184;8.690;2023-04-15T06:19:53;7.30;99.90
4056;DHT22;2043;52.184;8.690;2023-04-15T06:22:22;7.20;99.90
4056;DHT22;2043;52.184;8.690;2023-04-15T06:27:17;7.40;99.90
4056;DHT22;2043;52.184;8.690;2023-04-15T06:29:55;7.40;99.90
4056;DHT22;2043;52.184;8.690;2023-04-15T06:32:22;7.40;99.90
4056;DHT22;2043;52.184;8.690;2023-04-15T06:34:49;7.30;99.90
4056;DHT22;2043;52.184;8.690;2023-04-15T06:39:43;7.40;99.90
4056;DHT22;2043;52.184;8.690;2023-04-15T06:42:10;7.20;99.90
4056;DHT22;2043;52.184;8.690;2023-04-15T06:44:37;7.20;99.90
4056;DHT22;2043;52.184;8.690;2023-04-15T06:47:04;7.30;99.90
4056;DHT22;2043;52.184;8.690;2023-04-15T06:51:59;7.30;99.90
4056;DHT22;2043;52.184;8.690;2023-04-15T07:06:42;7.20;99.90
4056;DHT22;2043;52.184;8.690;2023-04-15T07:09:10;7.30;99.90
4056;DHT22;2043;52.184;8.690;2023-04-15T07:14:04;7.50;99.90
4056;DHT22;2043;52.184;8.690;2023-04-15T07:16:31;7.50;99.90
4056;DHT22;2043;52.184;8.690;2023-04-15T07:21:25;7.60;99.90
4056;DHT22;2043;52.184;8.690;2023-04-15T07:23:53;7.40;99.90
4056;DHT22;2043;52.184;8.690;2023-04-15T07:26:20;7.40;99.90
4056;DHT22;2043;52.184;8.690;2023-04-15T07:31:14;7.40;99.90
4056;DHT22;2043;52.184;8.690;2023-04-15T07:41:06;7.40;99.90
4056;DHT22;2043;52.184;8.690;2023-04-15T07:43:33;7.40;99.90
4056;DHT22;2043;52.184;8.690;2023-04-15T07:53:21;7.60;99.90
4056;DHT22;2043;52.184;8.690;2023-04-15T07:58:16;7.60;99.90
4056;DHT22;2043;52.184;8.690;2023-04-15T08:05:38;7.70;99.90
4056;DHT22;2043;52.184;8.690;2023-04-15T08:10:32;7.80;99.90
4056;DHT22;2043;52.184;8.690;2023-04-15T08:12:59;7.80;99.90
4056;DHT22;2043;52.184;8.690;2023-04-15T08:15:26;7.90;99.90
4056;DHT22;2043;52.184;8.690;2023-04-15T08:22:48;7.80;99.90
4056;DHT22;2043;52.184;8.690;2023-04-15T08:25:18;7.80;99.90
4056;DHT22;2043;52.184;8.690;2023-04-15T08:30:13;7.80;99.90
4056;DHT22;2043;52.184;8.690;2023-04-15T08:32:42;7.90;99.90
4056;DHT22;2043;52.184;8.690;2023-04-15T08:35:12;7.90;99.90
4056;DHT22;2043;52.184;8.690;2023-04-15T08:37:39;7.90;99.90
4056;DHT22;2043;52.184;8.690;2023-04-15T08:40:06;8.00;99.90
4056;DHT22;2043;52.184;8.690;2023-04-15T08:42:36;8.10;99.90
4056;DHT22;2043;52.184;8.690;2023-04-15T08:45:09;8.20;99.90
4056;DHT22;2043;52.184;8.690;2023-04-15T08:47:39;8.10;99.90
4056;DHT22;2043;52.184;8.690;2023-04-15T08:50:09;8.00;99.90
4056;DHT22;2043;52.184;8.690;2023-04-15T08:52:37;8.10;99.90
4056;DHT22;2043;52.184;8.690;2023-04-15T08:55:07;8.20;99.90
4056;DHT22;2043;52.184;8.690;2023-04-15T08:57:34;8.20;99.90
4056;DHT22;2043;52.184;8.690;2023-04-15T09:00:02;8.20;99.90
4056;DHT22;2043;52.184;8.690;2023-04-15T09:02:31;8.30;99.90
4056;DHT22;2043;52.184;8.690;2023-04-15T09:09:53;8.30;99.90
4056;DHT22;2043;52.184;8.690;2023-04-15T09:12:20;8.20;99.90
4056;DHT22;2043;52.184;8.690;2023-04-15T09:14:47;8.30;99.90
4056;DHT22;2043;52.184;8.690;2023-04-15T09:17:18;8.30;99.90
4056;DHT22;2043;52.184;8.690;2023-04-15T09:22:13;8.30;99.90
4056;DHT22;2043;52.184;8.690;2023-04-15T09:24:40;8.40;99.90
4056;DHT22;2043;52.184;8.690;2023-04-15T09:29:36;8.50;99.90
4056;DHT22;2043;52.184;8.690;2023-04-15T09:37:04;8.50;99.90
4056;DHT22;2043;52.184;8.690;2023-04-15T09:39:49;8.40;99.90
4056;DHT22;2043;52.184;8.690;2023-04-15T09:42:18;8.30;99.90
4056;DHT22;2043;52.184;8.690;2023-04-15T09:44:50;8.40;99.90
4056;DHT22;2043;52.184;8.690;2023-04-15T09:49:59;8.50;99.90
4056;DHT22;2043;52.184;8.690;2023-04-15T09:52:26;8.50;99.90
4056;DHT22;2043;52.184;8.690;2023-04-15T09:54:56;8.60;99.90
4056;DHT22;2043;52.184;8.690;2023-04-15T09:57:24;8.50;99.90
4056;DHT22;2043;52.184;8.690;2023-04-15T09:59:51;8.50;99.90
4056;DHT22;2043;52.184;8.690;2023-04-15T10:02:18;8.60;99.90
4056;DHT22;2043;52.184;8.690;2023-04-15T10:04:49;8.60;99.90
4056;DHT22;2043;52.184;8.690;2023-04-15T10:09:47;8.70;99.90
4056;DHT22;2043;52.184;8.690;2023-04-15T10:12:18;8.70;99.90
4056;DHT22;2043;52.184;8.690;2023-04-15T10:14:51;8.60;99.90
4056;DHT22;2043;52.184;8.690;2023-04-15T10:17:21;8.60;99.90
4056;DHT22;2043;52.184;8.690;2023-04-15T10:19:48;8.50;99.90
4056;DHT22;2043;52.184;8.690;2023-04-15T10:24:46;8.60;99.90
4056;DHT22;2043;52.184;8.690;2023-04-15T10:29:41;8.60;99.90
4056;DHT22;2043;52.184;8.690;2023-04-15T10:32:09;8.60;99.90
4056;DHT22;2043;52.184;8.690;2023-04-15T10:34:36;8.70;99.90
4056;DHT22;2043;52.184;8.690;2023-04-15T10:37:04;8.70;99.90
4056;DHT22;2043;52.184;8.690;2023-04-15T10:39:37;8.70;99.90
4056;DHT22;2043;52.184;8.690;2023-04-15T10:42:08;8.70;99.90
4056;DHT22;2043;52.184;8.690;2023-04-15T10:44:41;8.70;99.90
4056;DHT22;2043;52.184;8.690;2023-04-15T10:47:17;8.60;99.90
4056;DHT22;2043;52.184;8.690;2023-04-15T10:49:49;8.60;99.90
4056;DHT22;2043;52.184;8.690;2023-04-15T10:52:21;8.60;99.90
4056;DHT22;2043;52.184;8.690;2023-04-15T10:54:48;8.70;99.90
4056;DHT22;2043;52.184;8.690;2023-04-15T10:57:22;8.70;99.90
4056;DHT22;2043;52.184;8.690;2023-04-15T11:00:01;8.70;99.90
4056;DHT22;2043;52.184;8.690;2023-04-15T11:02:46;8.70;99.90
4056;DHT22;2043;52.184;8.690;2023-04-15T11:05:15;8.70;99.90
4056;DHT22;2043;52.184;8.690;2023-04-15T11:18:16;8.80;99.90
4056;DHT22;2043;52.184;8.690;2023-04-15T11:20:45;8.70;99.90
4056;DHT22;2043;52.184;8.690;2023-04-15T11:25:57;8.80;99.90
4056;DHT22;2043;52.184;8.690;2023-04-15T11:28:29;8.80;99.90
4056;DHT22;2043;52.184;8.690;2023-04-15T11:30:57;8.80;99.90
4056;DHT22;2043;52.184;8.690;2023-04-15T11:33:24;8.80;99.90
4056;DHT22;2043;52.184;8.690;2023-04-15T11:35:52;8.80;99.90
4056;DHT22;2043;52.184;8.690;2023-04-15T11:40:50;8.80;99.90
4056;DHT22;2043;52.184;8.690;2023-04-15T11:43:19;8.80;99.90
4056;DHT22;2043;52.184;8.690;2023-04-15T11:45:58;8.80;99.90
4056;DHT22;2043;52.184;8.690;2023-04-15T11:48:27;8.80;99.90
4056;DHT22;2043;52.184;8.690;2023-04-15T11:53:44;8.90;99.90
4056;DHT22;2043;52.184;8.690;2023-04-15T11:56:19;8.90;99.90
4056;DHT22;2043;52.184;8.690;2023-04-15T11:58:47;8.90;99.90
4056;DHT22;2043;52.184;8.690;2023-04-15T12:01:16;8.90;99.90
4056;DHT22;2043;52.184;8.690;2023-04-15T12:03:45;8.90;99.90
4056;DHT22;2043;52.184;8.690;2023-04-15T12:14:27;8.90;99.90
4056;DHT22;2043;52.184;8.690;2023-04-15T12:16:57;8.90;99.90
4056;DHT22;2043;52.184;8.690;2023-04-15T12:19:26;8.90;99.90
4056;DHT22;2043;52.184;8.690;2023-04-15T12:22:02;8.90;99.90
4056;DHT22;2043;52.184;8.690;2023-04-15T12:24:34;8.90;99.90
4056;DHT22;2043;52.184;8.690;2023-04-15T12:27:03;8.90;99.90
4056;DHT22;2043;52.184;8.690;2023-04-15T12:29:32;8.90;99.90
4056;DHT22;2043;52.184;8.690;2023-04-15T12:32:13;8.90;99.90
4056;DHT22;2043;52.184;8.690;2023-04-15T12:34:45;9.00;99.90
4056;DHT22;2043;52.184;8.690;2023-04-15T12:39:45;8.90;99.90
4056;DHT22;2043;52.184;8.690;2023-04-15T12:42:14;8.90;99.90
4056;DHT22;2043;52.184;8.690;2023-04-15T12:47:09;8.80;99.90
4056;DHT22;2043;52.184;8.690;2023-04-15T12:49:37;8.90;99.90
4056;DHT22;2043;52.184;8.690;2023-04-15T12:52:04;8.80;99.90
4056;DHT22;2043;52.184;8.690;2023-04-15T12:56:58;8.80;99.90
4056;DHT22;2043;52.184;8.690;2023-04-15T12:59:26;8.90;99.90
4056;DHT22;2043;52.184;8.690;2023-04-15T13:04:21;9.00;99.90
4056;DHT22;2043;52.184;8.690;2023-04-15T13:06:48;8.90;99.90
4056;DHT22;2043;52.184;8.690;2023-04-15T13:11:43;8.90;99.90
4056;DHT22;2043;52.184;8.690;2023-04-15T13:14:10;8.90;99.90
4056;DHT22;2043;52.184;8.690;2023-04-15T13:21:34;8.90;99.90
4056;DHT22;2043;52.184;8.690;2023-04-15T13:24:02;9.00;99.90
4056;DHT22;2043;52.184;8.690;2023-04-15T13:31:27;8.90;99.90
4056;DHT22;2043;52.184;8.690;2023-04-15T13:33:56;8.90;99.90
4056;DHT22;2043;52.184;8.690;2023-04-15T13:38:50;9.00;99.90
4056;DHT22;2043;52.184;8.690;2023-04-15T13:41:17;9.00;99.90
4056;DHT22;2043;52.184;8.690;2023-04-15T13:48:40;9.00;99.90
4056;DHT22;2043;52.184;8.690;2023-04-15T13:56:06;9.20;99.90
4056;DHT22;2043;52.184;8.690;2023-04-15T13:58:33;9.20;99.90
4056;DHT22;2043;52.184;8.690;2023-04-15T14:03:30;9.20;99.90
4056;DHT22;2043;52.184;8.690;2023-04-15T14:08:25;9.20;99.90
4056;DHT22;2043;52.184;8.690;2023-04-15T14:28:04;9.20;99.90
4056;DHT22;2043;52.184;8.690;2023-04-15T14:37:54;9.20;99.90
4056;DHT22;2043;52.184;8.690;2023-04-15T14:40:21;9.10;99.90
4056;DHT22;2043;52.184;8.690;2023-04-15T14:45:15;9.10;99.90
4056;DHT22;2043;52.184;8.690;2023-04-15T14:47:43;9.10;99.90
4056;DHT22;2043;52.184;8.690;2023-04-15T14:55:06;9.20;99.90
4056;DHT22;2043;52.184;8.690;2023-04-15T15:02:29;9.20;99.90
4056;DHT22;2043;52.184;8.690;2023-04-15T15:05:06;9.20;99.90
4056;DHT22;2043;52.184;8.690;2023-04-15T15:07:33;9.20;99.90
4056;DHT22;2043;52.184;8.690;2023-04-15T15:17:23;9.20;99.90
4056;DHT22;2043;52.184;8.690;2023-04-15T15:19:50;9.20;99.90
4056;DHT22;2043;52.184;8.690;2023-04-15T15:24:46;9.20;99.90
4056;DHT22;2043;52.184;8.690;2023-04-15T15:29:41;9.20;99.90
4056;DHT22;2043;52.184;8.690;2023-04-15T15:39:29;9.30;99.90
4056;DHT22;2043;52.184;8.690;2023-04-15T15:41:58;9.30;99.90
4056;DHT22;2043;52.184;8.690;2023-04-15T15:46:52;9.40;99.90
4056;DHT22;2043;52.184;8.690;2023-04-15T15:54:15;9.30;99.90
4056;DHT22;2043;52.184;8.690;2023-04-15T16:06:31;9.60;99.90
4056;DHT22;2043;52.184;8.690;2023-04-15T16:09:01;9.60;99.90
4056;DHT22;2043;52.184;8.690;2023-04-15T16:11:28;9.60;99.90
4056;DHT22;2043;52.184;8.690;2023-04-15T16:13:55;9.60;99.90
4056;DHT22;2043;52.184;8.690;2023-04-15T16:16:22;9.60;99.90
4056;DHT22;2043;52.184;8.690;2023-04-15T16:28:40;9.70;99.90
4056;DHT22;2043;52.184;8.690;2023-04-15T16:31:07;9.70;99.90
4056;DHT22;2043;52.184;8.690;2023-04-15T16:38:28;9.80;99.90
4056;DHT22;2043;52.184;8.690;2023-04-15T16:41:00;9.80;99.90
4056;DHT22;2043;52.184;8.690;2023-04-15T16:43:27;9.70;99.90
4056;DHT22;2043;52.184;8.690;2023-04-15T16:53:17;9.70;99.90
4056;DHT22;2043;52.184;8.690;2023-04-15T17:05:33;9.70;99.90
4056;DHT22;2043;52.184;8.690;2023-04-15T17:12:55;9.70;99.90
4056;DHT22;2043;52.184;8.690;2023-04-15T17:15:23;9.70;99.90
4056;DHT22;2043;52.184;8.690;2023-04-15T17:20:18;9.70;99.90
4056;DHT22;2043;52.184;8.690;2023-04-15T17:25:12;9.70;99.90
4056;DHT22;2043;52.184;8.690;2023-04-15T17:27:40;9.70;99.90
4056;DHT22;2043;52.184;8.690;2023-04-15T17:30:10;9.70;99.90
4056;DHT22;2043;52.184;8.690;2023-04-15T17:35:06;9.70;99.90
4056;DHT22;2043;52.184;8.690;2023-04-15T17:37:33;9.80;99.90
4056;DHT22;2043;52.184;8.690;2023-04-15T17:40:01;9.70;99.90
4056;DHT22;2043;52.184;8.690;2023-04-15T17:42:27;9.70;99.90
4056;DHT22;2043;52.184;8.690;2023-04-15T17:47:21;9.60;99.90
4056;DHT22;2043;52.184;8.690;2023-04-15T17:49:48;9.60;99.90
4056;DHT22;2043;52.184;8.690;2023-04-15T17:52:15;9.70;99.90
4056;DHT22;2043;52.184;8.690;2023-04-15T17:57:09;9.60;99.90
4056;DHT22;2043;52.184;8.690;2023-04-15T18:09:26;9.60;99.90
4056;DHT22;2043;52.184;8.690;2023-04-15T18:14:20;9.60;99.90
4056;DHT22;2043;52.184;8.690;2023-04-15T18:17:00;9.60;99.90
4056;DHT22;2043;52.184;8.690;2023-04-15T18:26:51;9.50;99.90
4056;DHT22;2043;52.184;8.690;2023-04-15T18:31:45;9.60;99.90
4056;DHT22;2043;52.184;8.690;2023-04-15T18:34:12;9.60;99.90
4056;DHT22;2043;52.184;8.690;2023-04-15T18:36:39;9.50;99.90
4056;DHT22;2043;52.184;8.690;2023-04-15T18:41:33;9.50;99.90
4056;DHT22;2043;52.184;8.690;2023-04-15T18:46:27;9.60;99.90
4056;DHT22;2043;52.184;8.690;2023-04-15T18:51:22;9.50;99.90
4056;DHT22;2043;52.184;8.690;2023-04-15T18:53:48;9.50;99.90
4056;DHT22;2043;52.184;8.690;2023-04-15T18:56:16;9.40;99.90
4056;DHT22;2043;52.184;8.690;2023-04-15T18:58:42;9.40;99.90
4056;DHT22;2043;52.184;8.690;2023-04-15T19:01:30;9.40;99.90
4056;DHT22;2043;52.184;8.690;2023-04-15T19:11:20;9.40;99.90
4056;DHT22;2043;52.184;8.690;2023-04-15T19:13:47;9.40;99.90
4056;DHT22;2043;52.184;8.690;2023-04-15T19:21:10;9.40;99.90
4056;DHT22;2043;52.184;8.690;2023-04-15T19:23:38;9.40;99.90
4056;DHT22;2043;52.184;8.690;2023-04-15T19:26:06;9.40;99.90
4056;DHT22;2043;52.184;8.690;2023-04-15T19:28:34;9.40;99.90
4056;DHT22;2043;52.184;8.690;2023-04-15T19:31:01;9.50;99.90
4056;DHT22;2043;52.184;8.690;2023-04-15T19:36:02;9.50;99.90
4056;DHT22;2043;52.184;8.690;2023-04-15T19:38:30;9.50;99.90
4056;DHT22;2043;52.184;8.690;2023-04-15T19:40:57;9.50;99.90
4056;DHT22;2043;52.184;8.690;2023-04-15T19:43:24;9.50;99.90
4056;DHT22;2043;52.184;8.690;2023-04-15T19:45:51;9.50;99.90
4056;DHT22;2043;52.184;8.690;2023-04-15T19:50:47;9.40;99.90
4056;DHT22;2043;52.184;8.690;2023-04-15T19:55:41;9.50;99.90
4056;DHT22;2043;52.184;8.690;2023-04-15T19:58:08;9.50;99.90
4056;DHT22;2043;52.184;8.690;2023-04-15T20:00:36;9.50;99.90
4056;DHT22;2043;52.184;8.690;2023-04-15T20:03:03;9.50;99.90
4056;DHT22;2043;52.184;8.690;2023-04-15T20:05:30;9.40;99.90
4056;DHT22;2043;52.184;8.690;2023-04-15T20:07:59;9.50;99.90
4056;DHT22;2043;52.184;8.690;2023-04-15T20:10:26;9.50;99.90
4056;DHT22;2043;52.184;8.690;2023-04-15T20:15:20;9.50;99.90
4056;DHT22;2043;52.184;8.690;2023-04-15T20:17:49;9.50;99.90
4056;DHT22;2043;52.184;8.690;2023-04-15T20:22:44;9.50;99.90
4056;DHT22;2043;52.184;8.690;2023-04-15T20:27:38;9.50;99.90
4056;DHT22;2043;52.184;8.690;2023-04-15T20:30:05;9.50;99.90
4056;DHT22;2043;52.184;8.690;2023-04-15T20:35:04;9.50;99.90
4056;DHT22;2043;52.184;8.690;2023-04-15T20:37:32;9.50;99.90
4056;DHT22;2043;52.184;8.690;2023-04-15T20:42:30;9.50;99.90
4056;DHT22;2043;52.184;8.690;2023-04-15T20:49:52;9.50;99.90
4056;DHT22;2043;52.184;8.690;2023-04-15T20:52:19;9.50;99.90
4056;DHT22;2043;52.184;8.690;2023-04-15T20:54:46;9.40;99.90
4056;DHT22;2043;52.184;8.690;2023-04-15T20:57:13;9.50;99.90
4056;DHT22;2043;52.184;8.690;2023-04-15T21:02:07;9.50;99.90
4056;DHT22;2043;52.184;8.690;2023-04-15T21:04:34;9.50;99.90
4056;DHT22;2043;52.184;8.690;2023-04-15T21:07:03;9.50;99.90
4056;DHT22;2043;52.184;8.690;2023-04-15T21:09:30;9.50;99.90
4056;DHT22;2043;52.184;8.690;2023-04-15T21:11:57;9.60;99.90
4056;DHT22;2043;52.184;8.690;2023-04-15T21:14:28;9.60;99.90
4056;DHT22;2043;52.184;8.690;2023-04-15T21:16:56;9.60;99.90
4056;DHT22;2043;52.184;8.690;2023-04-15T21:19:23;9.60;99.90
4056;DHT22;2043;52.184;8.690;2023-04-15T21:21:51;9.60;99.90
4056;DHT22;2043;52.184;8.690;2023-04-15T21:24:18;9.60;99.90
4056;DHT22;2043;52.184;8.690;2023-04-15T21:26:44;9.60;99.90
4056;DHT22;2043;52.184;8.690;2023-04-15T21:29:11;9.60;99.90
4056;DHT22;2043;52.184;8.690;2023-04-15T21:31:39;9.60;99.90
4056;DHT22;2043;52.184;8.690;2023-04-15T21:34:06;9.60;99.90
4056;DHT22;2043;52.184;8.690;2023-04-15T21:36:32;9.60;99.90
4056;DHT22;2043;52.184;8.690;2023-04-15T21:38:59;9.60;99.90
4056;DHT22;2043;52.184;8.690;2023-04-15T21:41:26;9.60;99.90
4056;DHT22;2043;52.184;8.690;2023-04-15T21:43:53;9.70;99.90
4056;DHT22;2043;52.184;8.690;2023-04-15T21:46:20;9.70;99.90
4056;DHT22;2043;52.184;8.690;2023-04-15T21:48:54;9.70;99.90
4056;DHT22;2043;52.184;8.690;2023-04-15T21:51:21;9.70;99.90
4056;DHT22;2043;52.184;8.690;2023-04-15T21:53:48;9.70;99.90
4056;DHT22;2043;52.184;8.690;2023-04-15T21:56:15;9.70;99.90
4056;DHT22;2043;52.184;8.690;2023-04-15T21:58:41;9.70;99.90
4056;DHT22;2043;52.184;8.690;2023-04-15T22:01:08;9.70;99.90
4056;DHT22;2043;52.184;8.690;2023-04-15T22:03:37;9.70;99.90
4056;DHT22;2043;52.184;8.690;2023-04-15T22:06:04;9.60;99.90
4056;DHT22;2043;52.184;8.690;2023-04-15T22:08:31;9.50;99.90
4056;DHT22;2043;52.184;8.690;2023-04-15T22:11:20;9.50;99.90
4056;DHT22;2043;52.184;8.690;2023-04-15T22:13:54;9.50;99.90
4056;DHT22;2043;52.184;8.690;2023-04-15T22:16:21;9.50;99.90
4056;DHT22;2043;52.184;8.690;2023-04-15T22:18:48;9.50;99.90
4056;DHT22;2043;52.184;8.690;2023-04-15T22:23:45;9.40;99.90
4056;DHT22;2043;52.184;8.690;2023-04-15T22:26:13;9.50;99.90
4056;DHT22;2043;52.184;8.690;2023-04-15T22:28:39;9.50;99.90
4056;DHT22;2043;52.184;8.690;2023-04-15T22:31:07;9.50;99.90
4056;DHT22;2043;52.184;8.690;2023-04-15T22:33:34;9.50;99.90
4056;DHT22;2043;52.184;8.690;2023-04-15T22:36:01;9.50;99.90
4056;DHT22;2043;52.184;8.690;2023-04-15T22:38:27;9.50;99.90
4056;DHT22;2043;52.184;8.690;2023-04-15T22:40:54;9.50;99.90
4056;DHT22;2043;52.184;8.690;2023-04-15T22:43:21;9.60;99.90
4056;DHT22;2043;52.184;8.690;2023-04-15T22:45:49;9.60;99.90
4056;DHT22;2043;52.184;8.690;2023-04-15T22:48:17;9.60;99.90
4056;DHT22;2043;52.184;8.690;2023-04-15T22:50:44;9.60;99.90
4056;DHT22;2043;52.184;8.690;2023-04-15T22:53:11;9.60;99.90
4056;DHT22;2043;52.184;8.690;2023-04-15T22:55:38;9.60;99.90
4056;DHT22;2043;52.184;8.690;2023-04-15T22:58:05;9.60;99.90
4056;DHT22;2043;52.184;8.690;2023-04-15T23:00:32;9.60;99.90
4056;DHT22;2043;52.184;8.690;2023-04-15T23:02:58;9.60;99.90
4056;DHT22;2043;52.184;8.690;2023-04-15T23:05:26;9.60;99.90
4056;DHT22;2043;52.184;8.690;2023-04-15T23:07:53;9.60;99.90
4056;DHT22;2043;52.184;8.690;2023-04-15T23:10:20;9.60;99.90
4056;DHT22;2043;52.184;8.690;2023-04-15T23:15:14;9.60;99.90
4056;DHT22;2043;52.184;8.690;2023-04-15T23:17:41;9.60;99.90
4056;DHT22;2043;52.184;8.690;2023-04-15T23:20:09;9.60;99.90
4056;DHT22;2043;52.184;8.690;2023-04-15T23:22:37;9.60;99.90
4056;DHT22;2043;52.184;8.690;2023-04-15T23:25:04;9.60;99.90
4056;DHT22;2043;52.184;8.690;2023-04-15T23:27:31;9.60;99.90
4056;DHT22;2043;52.184;8.690;2023-04-15T23:29:58;9.60;99.90
4056;DHT22;2043;52.184;8.690;2023-04-15T23:32:24;9.60;99.90
4056;DHT22;2043;52.184;8.690;2023-04-15T23:34:52;9.60;99.90
4056;DHT22;2043;52.184;8.690;2023-04-15T23:37:19;9.60;99.90
4056;DHT22;2043;52.184;8.690;2023-04-15T23:44:40;9.60;99.90
4056;DHT22;2043;52.184;8.690;2023-04-15T23:47:07;9.60;99.90
4056;DHT22;2043;52.184;8.690;2023-04-15T23:49:34;9.60;99.90
4056;DHT22;2043;52.184;8.690;2023-04-15T23:52:02;9.60;99.90
4056;DHT22;2043;52.184;8.690;2023-04-15T23:54:29;9.60;99.90
4056;DHT22;2043;52.184;8.690;2023-04-15T23:56:56;9.60;99.90
4056;DHT22;2043;52.184;8.690;2023-04-15T23:59:23;9.60;99.90
